KRZT

Ross County Airport

Chillicothe, Ohio, USA
METAR KRZT 220715Z AUTO 36006KT 10SM CLR 17/12 A3016 RMK AO2
Observed Flight Rules
Sep-22 @ 07:15 UTC (5 minutes ago) Visual Flight Rules
Wind Visibility Clouds
360° at 6 knots 10 miles
Temperatures Readings
Current 17°C / 63°F
Dewpoint 12°C / 54°F
Humidity 73%
Altimeter 30.16" Hg
Pressure 1021 hPa
Elevation 221
METAR KRZT 220715Z AUTO 36006KT 10SM CLR 17/12 A3016 RMK AO2
Observed Flight Rules
Sep-22 @ 07:15 UTC
(5 minutes ago)
VFR
Wind Visibility
360° at 6 knots 10 miles
Clouds
Temperature Dewpoint
17°C / 63°F 12°C / 54°F
Humidity Altimeter Pressure
73% 30.16" Hg 1021 hPa